Time;durP1;ratioP1;P1;durP2;ratioP2;P2;SDS_P1;SDS_P2;PMS_P1;PMS_P2;Temp;Humidity;BMP_temperature;BMP_pressure;BME280_temperature;BME280_humidity;BME280_pressure;Samples;Min_cycle;Max_cycle;Signal;HPM_P1;HPM_P2
2021/07/06 00:00:15;;;;;;;7.20;1.90;;;17.20;99.90;;;;;;5004917;28;20601;-72
2021/07/06 00:03:01;;;;;;;2.20;1.30;;;17.10;99.90;;;;;;5015416;28;20452;-72
2021/07/06 00:05:47;;;;;;;2.80;1.97;;;17.10;99.90;;;;;;5025481;28;20418;-72
2021/07/06 00:08:32;;;;;;;6.63;1.77;;;17.10;99.90;;;;;;4991959;28;20961;-72
2021/07/06 00:11:18;;;;;;;3.73;1.30;;;17.00;99.90;;;;;;5009797;28;20505;-72
2021/07/06 00:14:05;;;;;;;4.43;1.80;;;16.90;99.90;;;;;;5010290;28;20427;-73
2021/07/06 00:16:51;;;;;;;3.20;1.70;;;16.90;99.90;;;;;;5019659;28;20536;-72
2021/07/06 00:19:37;;;;;;;4.10;2.10;;;16.90;99.90;;;;;;4999088;28;20433;-72
2021/07/06 00:22:23;;;;;;;3.93;1.70;;;16.90;99.90;;;;;;5016438;28;20440;-72
2021/07/06 00:25:10;;;;;;;5.20;1.73;;;17.00;99.90;;;;;;5021003;28;20478;-72
2021/07/06 00:27:56;;;;;;;4.03;1.60;;;16.90;99.90;;;;;;5031250;28;20417;-72
2021/07/06 00:30:43;;;;;;;2.77;1.73;;;16.90;99.90;;;;;;5022598;28;21030;-71
2021/07/06 00:33:30;;;;;;;5.10;1.80;;;16.90;99.90;;;;;;5021783;28;20523;-72
2021/07/06 00:36:16;;;;;;;3.93;1.40;;;17.00;99.90;;;;;;5019807;28;20820;-72
2021/07/06 00:39:02;;;;;;;5.80;1.90;;;17.00;99.90;;;;;;5019115;28;20442;-72
2021/07/06 00:41:47;;;;;;;2.33;1.43;;;17.00;99.90;;;;;;5015250;28;20421;-72
2021/07/06 00:44:33;;;;;;;6.37;1.77;;;17.00;99.90;;;;;;5019606;28;20510;-72
2021/07/06 00:47:31;;;;;;;4.07;1.87;;;16.90;99.90;;;;;;5022562;28;20525;-72
2021/07/06 00:50:18;;;;;;;6.40;1.90;;;16.80;99.90;;;;;;5016753;28;20577;-72
2021/07/06 00:53:04;;;;;;;4.97;1.50;;;16.70;99.90;;;;;;5010295;28;20459;-72
2021/07/06 00:55:53;;;;;;;10.13;2.10;;;16.60;99.90;;;;;;5007394;28;20426;-72
2021/07/06 00:58:40;;;;;;;2.00;1.50;;;16.60;99.90;;;;;;5014923;28;20513;-72
2021/07/06 01:01:26;;;;;;;5.47;1.53;;;16.50;99.90;;;;;;5022753;28;20430;-72
2021/07/06 01:04:13;;;;;;;4.77;1.83;;;16.60;99.90;;;;;;5009773;28;20426;-72
2021/07/06 01:06:59;;;;;;;2.30;1.53;;;16.50;99.90;;;;;;5026427;28;20553;-72
2021/07/06 01:09:45;;;;;;;5.00;1.70;;;16.50;99.90;;;;;;5020083;28;20998;-72
2021/07/06 01:12:31;;;;;;;4.73;1.63;;;16.60;99.90;;;;;;5013446;28;20473;-72
2021/07/06 01:15:19;;;;;;;4.97;2.50;;;16.60;99.90;;;;;;5019455;28;20467;-72
2021/07/06 01:18:07;;;;;;;2.70;2.00;;;16.40;99.90;;;;;;5016986;28;20475;-72
2021/07/06 01:20:56;;;;;;;4.90;2.07;;;16.50;99.90;;;;;;5014332;28;20398;-72
2021/07/06 01:23:43;;;;;;;3.47;1.97;;;16.50;99.90;;;;;;5020284;28;20841;-72
2021/07/06 01:26:29;;;;;;;7.33;2.23;;;16.50;99.90;;;;;;5014046;28;20386;-72
2021/07/06 01:29:15;;;;;;;7.70;2.30;;;16.40;99.90;;;;;;5011035;28;20491;-71
2021/07/06 01:32:00;;;;;;;3.27;1.90;;;16.30;99.90;;;;;;5016885;28;20496;-72
2021/07/06 01:34:46;;;;;;;4.60;2.00;;;16.20;99.90;;;;;;5021365;28;20946;-72
2021/07/06 01:37:31;;;;;;;2.20;1.50;;;16.30;99.90;;;;;;5024910;28;20430;-72
2021/07/06 01:40:20;;;;;;;2.33;1.60;;;16.20;99.90;;;;;;5024146;28;20441;-72
2021/07/06 01:43:06;;;;;;;3.20;2.20;;;16.20;99.90;;;;;;5018122;28;20499;-72
2021/07/06 01:45:52;;;;;;;8.03;3.30;;;16.20;99.90;;;;;;5014847;28;20439;-71
2021/07/06 01:48:37;;;;;;;3.13;2.00;;;16.20;99.90;;;;;;5014022;28;20611;-72
2021/07/06 01:51:23;;;;;;;5.33;2.10;;;16.20;99.90;;;;;;5019839;28;20460;-72
2021/07/06 01:54:08;;;;;;;2.97;1.70;;;16.30;99.90;;;;;;5029755;28;20390;-72
2021/07/06 01:56:56;;;;;;;4.20;1.83;;;16.30;99.90;;;;;;5017468;28;20527;-72
2021/07/06 01:59:42;;;;;;;2.30;1.90;;;16.30;99.90;;;;;;5057665;23;20640;-73
2021/07/06 02:02:28;;;;;;;6.27;1.93;;;16.10;99.90;;;;;;5052467;28;20425;-72
2021/07/06 02:05:32;;;;;;;3.80;1.67;;;16.00;99.90;;;;;;5053045;28;20477;-73
2021/07/06 02:08:21;;;;;;;4.70;1.97;;;16.00;99.90;;;;;;5044103;28;20573;-73
2021/07/06 02:11:06;;;;;;;3.93;1.70;;;16.10;99.90;;;;;;5052444;28;20507;-73
2021/07/06 02:13:55;;;;;;;4.07;1.90;;;16.00;99.90;;;;;;5052513;28;20570;-73
2021/07/06 02:16:41;;;;;;;3.40;2.00;;;16.00;99.90;;;;;;5044764;28;20432;-73
2021/07/06 02:19:26;;;;;;;8.23;3.60;;;15.90;99.90;;;;;;5049847;28;20462;-73
2021/07/06 02:22:12;;;;;;;2.87;1.50;;;16.00;99.90;;;;;;5053261;28;21023;-72
2021/07/06 02:24:58;;;;;;;2.77;2.37;;;16.00;99.90;;;;;;5048349;28;20453;-73
2021/07/06 02:27:47;;;;;;;5.43;1.40;;;16.00;99.90;;;;;;5050480;28;21169;-73
2021/07/06 02:30:34;;;;;;;4.50;2.60;;;16.00;99.90;;;;;;5052290;28;20426;-73
2021/07/06 02:33:20;;;;;;;5.07;2.00;;;16.00;99.90;;;;;;5049512;28;21160;-72
2021/07/06 02:36:08;;;;;;;4.30;2.60;;;16.10;99.90;;;;;;5047656;28;20493;-73
2021/07/06 02:38:53;;;;;;;6.53;2.50;;;16.10;99.90;;;;;;5047691;28;20438;-73
2021/07/06 02:41:39;;;;;;;10.83;2.17;;;16.10;99.90;;;;;;5052574;28;20397;-73
2021/07/06 02:44:24;;;;;;;4.33;1.93;;;16.10;99.90;;;;;;5050619;28;20451;-72
2021/07/06 02:47:11;;;;;;;3.87;1.90;;;16.10;99.90;;;;;;5050330;28;20843;-73
2021/07/06 02:49:57;;;;;;;3.90;2.60;;;16.20;99.90;;;;;;5047477;28;20416;-73
2021/07/06 02:52:43;;;;;;;2.60;2.03;;;16.20;99.90;;;;;;5049292;28;21064;-73
2021/07/06 02:55:28;;;;;;;4.70;2.20;;;16.20;99.90;;;;;;5050974;28;20535;-72
2021/07/06 02:58:14;;;;;;;2.50;1.90;;;16.20;99.90;;;;;;5051382;28;20468;-73
2021/07/06 03:01:00;;;;;;;5.03;2.13;;;16.30;99.90;;;;;;5050756;28;20487;-73
2021/07/06 03:03:47;;;;;;;5.43;2.30;;;16.30;99.90;;;;;;5047393;28;20415;-73
2021/07/06 03:06:32;;;;;;;7.80;2.10;;;16.30;99.90;;;;;;5050537;28;20465;-73
2021/07/06 03:09:18;;;;;;;5.20;1.73;;;16.30;99.90;;;;;;5051848;28;20577;-73
2021/07/06 03:12:04;;;;;;;5.77;2.00;;;16.30;99.90;;;;;;5050152;28;20527;-73
2021/07/06 03:14:50;;;;;;;5.97;2.40;;;16.30;99.90;;;;;;5045454;28;20406;-73
2021/07/06 03:17:36;;;;;;;4.73;2.47;;;16.30;99.90;;;;;;5050283;28;20428;-73
2021/07/06 03:20:26;;;;;;;3.00;2.10;;;16.30;99.90;;;;;;5049848;28;20570;-73
2021/07/06 03:23:11;;;;;;;3.43;2.17;;;16.30;99.90;;;;;;5050025;28;20603;-73
2021/07/06 03:25:58;;;;;;;7.57;2.10;;;16.30;99.90;;;;;;5050476;28;20898;-73
2021/07/06 03:28:43;;;;;;;4.23;2.60;;;16.20;99.90;;;;;;5044605;28;20775;-73
2021/07/06 03:31:29;;;;;;;4.57;2.50;;;16.20;99.90;;;;;;5049797;28;20509;-73
2021/07/06 03:34:14;;;;;;;3.20;1.90;;;16.20;99.90;;;;;;5051352;28;20432;-73
2021/07/06 03:37:02;;;;;;;4.90;2.53;;;16.20;99.90;;;;;;5043461;28;20425;-73
2021/07/06 03:39:48;;;;;;;4.83;2.70;;;16.20;99.90;;;;;;5055221;28;21039;-73
2021/07/06 03:42:33;;;;;;;2.60;2.00;;;16.20;99.90;;;;;;5051302;28;20397;-72
2021/07/06 03:45:20;;;;;;;5.43;2.00;;;16.30;99.90;;;;;;5050352;28;20457;-73
2021/07/06 03:48:07;;;;;;;6.60;2.40;;;16.20;99.90;;;;;;5050141;28;20481;-73
2021/07/06 03:50:52;;;;;;;4.00;2.37;;;16.20;99.90;;;;;;5047598;28;20453;-72
2021/07/06 03:53:40;;;;;;;4.97;1.90;;;16.20;99.90;;;;;;5050080;28;20448;-73
2021/07/06 03:56:26;;;;;;;6.33;2.37;;;16.30;99.90;;;;;;5049216;28;20474;-73
2021/07/06 03:59:12;;;;;;;3.23;2.30;;;16.40;99.90;;;;;;5048391;28;21018;-72
2021/07/06 04:01:57;;;;;;;4.53;2.00;;;16.30;99.90;;;;;;5050238;28;20608;-73
2021/07/06 04:04:43;;;;;;;8.97;2.30;;;16.40;99.90;;;;;;5042250;28;20489;-73
2021/07/06 04:07:29;;;;;;;5.90;2.40;;;16.40;99.90;;;;;;5049732;28;20458;-73
2021/07/06 04:10:17;;;;;;;5.50;2.57;;;16.50;99.90;;;;;;5054142;28;20828;-74
2021/07/06 04:13:03;;;;;;;5.10;2.30;;;16.40;99.90;;;;;;5049147;28;20478;-73
2021/07/06 04:15:48;;;;;;;5.20;2.13;;;16.40;99.90;;;;;;5043456;28;20431;-72
2021/07/06 04:18:34;;;;;;;4.70;2.50;;;16.50;99.90;;;;;;5049265;28;20508;-73
2021/07/06 04:21:20;;;;;;;2.17;1.80;;;16.50;99.90;;;;;;5048230;28;20876;-72
2021/07/06 04:24:05;;;;;;;3.27;2.50;;;16.60;99.90;;;;;;5051393;28;20396;-73
2021/07/06 04:26:52;;;;;;;5.07;2.13;;;16.70;99.90;;;;;;5049773;28;21073;-73
2021/07/06 04:29:38;;;;;;;7.07;2.60;;;16.70;99.90;;;;;;5050954;28;20517;-73
2021/07/06 04:32:24;;;;;;;10.13;2.10;;;16.70;99.90;;;;;;5048556;28;20422;-73
2021/07/06 04:35:10;;;;;;;2.53;2.07;;;16.70;99.90;;;;;;5049661;28;20472;-73
2021/07/06 04:37:56;;;;;;;2.67;2.17;;;16.80;99.90;;;;;;5045157;28;20450;-72
2021/07/06 04:40:41;;;;;;;8.53;1.97;;;16.80;99.90;;;;;;5058439;28;20941;-73
2021/07/06 04:43:29;;;;;;;3.43;2.40;;;16.80;99.90;;;;;;5052656;28;20413;-73
2021/07/06 04:46:15;;;;;;;3.63;1.87;;;16.80;99.90;;;;;;5053932;28;20415;-73
2021/07/06 04:49:00;;;;;;;3.07;2.20;;;16.80;99.90;;;;;;5050612;28;20456;-73
2021/07/06 04:51:46;;;;;;;5.07;1.90;;;16.90;99.90;;;;;;5047880;28;20458;-73
2021/07/06 04:54:31;;;;;;;3.90;2.37;;;17.00;99.90;;;;;;5053195;28;20528;-73
2021/07/06 04:57:21;;;;;;;5.40;2.07;;;17.10;99.90;;;;;;5053573;28;20957;-73
2021/07/06 05:00:09;;;;;;;3.17;2.10;;;17.20;99.90;;;;;;5053362;28;20425;-73
2021/07/06 05:02:55;;;;;;;4.83;2.23;;;17.40;99.90;;;;;;5049396;28;20432;-73
2021/07/06 05:05:41;;;;;;;4.57;2.10;;;17.50;99.90;;;;;;5049095;28;20510;-73
2021/07/06 05:08:26;;;;;;;3.97;2.20;;;17.60;99.90;;;;;;5054733;28;20462;-73
2021/07/06 05:11:12;;;;;;;3.33;2.27;;;17.80;99.90;;;;;;5054009;28;20528;-73
2021/07/06 05:13:58;;;;;;;6.00;2.67;;;17.90;99.90;;;;;;5049069;28;20790;-73
2021/07/06 05:16:45;;;;;;;4.43;1.90;;;18.10;99.90;;;;;;5052049;28;21141;-73
2021/07/06 05:19:31;;;;;;;4.47;2.33;;;18.20;99.90;;;;;;5054327;28;20442;-73
2021/07/06 05:22:17;;;;;;;3.40;2.13;;;18.50;99.90;;;;;;5048325;28;20457;-73
2021/07/06 05:25:02;;;;;;;4.53;2.87;;;18.50;99.90;;;;;;5049766;28;20770;-73
2021/07/06 05:27:49;;;;;;;9.03;1.93;;;18.60;99.90;;;;;;5046132;28;20422;-73
2021/07/06 05:30:35;;;;;;;5.27;2.23;;;18.70;99.90;;;;;;5053236;28;20454;-73
2021/07/06 05:33:22;;;;;;;4.10;2.30;;;18.60;99.90;;;;;;5049695;28;20899;-73
2021/07/06 05:36:08;;;;;;;3.07;1.80;;;18.60;99.90;;;;;;5048840;28;20392;-73
2021/07/06 05:38:53;;;;;;;4.43;1.60;;;18.60;99.90;;;;;;5055164;28;20449;-73
2021/07/06 05:41:39;;;;;;;8.93;2.27;;;18.60;99.90;;;;;;5052095;28;20617;-73
2021/07/06 05:44:25;;;;;;;3.23;2.30;;;18.70;99.90;;;;;;5052629;28;20461;-73
2021/07/06 05:47:10;;;;;;;4.67;2.20;;;18.70;99.90;;;;;;5051948;28;20883;-73
2021/07/06 05:49:58;;;;;;;6.97;2.20;;;18.70;99.90;;;;;;5051397;28;20497;-73
2021/07/06 05:52:44;;;;;;;4.90;2.10;;;18.90;99.90;;;;;;5048693;28;20564;-73
2021/07/06 05:55:29;;;;;;;5.13;2.20;;;19.00;99.90;;;;;;5052142;28;21049;-73
2021/07/06 05:58:15;;;;;;;2.10;1.60;;;19.40;99.90;;;;;;5053436;28;20950;-73
2021/07/06 06:01:01;;;;;;;5.37;2.07;;;19.60;99.90;;;;;;5050812;28;20418;-73
2021/07/06 06:03:46;;;;;;;3.37;2.07;;;19.70;99.90;;;;;;5053384;28;20938;-73
2021/07/06 06:06:33;;;;;;;3.40;1.63;;;19.80;99.90;;;;;;5052827;28;20432;-73
2021/07/06 06:09:18;;;;;;;4.80;1.83;;;19.70;99.90;;;;;;5057953;28;21028;-73
2021/07/06 06:12:05;;;;;;;7.53;2.17;;;19.80;99.90;;;;;;5053104;28;20422;-73
2021/07/06 06:14:50;;;;;;;2.87;2.17;;;19.80;99.90;;;;;;5052844;28;20482;-73
2021/07/06 06:17:36;;;;;;;4.10;2.47;;;19.80;99.90;;;;;;5050175;28;20437;-73
2021/07/06 06:20:22;;;;;;;8.63;1.83;;;19.70;99.90;;;;;;5052285;28;20468;-73
2021/07/06 06:23:09;;;;;;;2.10;1.80;;;19.70;99.90;;;;;;5052831;28;20573;-73
2021/07/06 06:25:55;;;;;;;6.07;1.83;;;19.70;99.90;;;;;;5052037;28;20850;-73
2021/07/06 06:28:41;;;;;;;5.80;1.50;;;19.70;99.90;;;;;;5047147;28;21233;-73
2021/07/06 06:31:26;;;;;;;9.20;1.93;;;19.60;99.90;;;;;;5048522;28;20455;-73
2021/07/06 06:34:12;;;;;;;2.20;1.40;;;19.80;99.90;;;;;;5050314;28;20458;-73
2021/07/06 06:36:57;;;;;;;6.10;1.77;;;19.80;99.90;;;;;;5052151;28;20433;-73
2021/07/06 06:39:45;;;;;;;3.70;1.80;;;19.80;99.90;;;;;;5057058;28;20815;-73
2021/07/06 06:42:31;;;;;;;2.83;1.60;;;19.70;99.90;;;;;;5051013;28;21010;-73
2021/07/06 06:45:17;;;;;;;5.60;1.53;;;19.80;99.90;;;;;;5051571;28;20451;-73
2021/07/06 06:48:02;;;;;;;2.13;1.80;;;19.80;99.90;;;;;;5052516;28;20416;-72
2021/07/06 06:50:47;;;;;;;4.83;1.40;;;19.90;99.90;;;;;;5049885;28;20504;-73
2021/07/06 06:53:33;;;;;;;3.73;1.90;;;20.00;99.90;;;;;;5052168;28;20467;-73
2021/07/06 06:56:20;;;;;;;2.63;1.53;;;20.10;99.90;;;;;;5049526;28;20836;-73
2021/07/06 06:59:06;;;;;;;4.77;2.00;;;20.20;99.90;;;;;;5052174;28;20494;-73
2021/07/06 07:02:16;;;;;;;7.73;1.90;;;20.30;99.90;;;;;;5046745;28;20410;-73
2021/07/06 07:04:58;;;;;;;2.23;1.57;;;20.50;99.90;;;;;;5046241;28;20450;-73
2021/07/06 07:07:44;;;;;;;2.77;1.47;;;20.70;99.90;;;;;;5045163;28;21019;-73
2021/07/06 07:10:30;;;;;;;2.53;1.63;;;20.80;99.90;;;;;;5048912;28;20445;-72
2021/07/06 07:13:17;;;;;;;3.43;1.17;;;20.90;99.90;;;;;;5051246;28;20441;-72
2021/07/06 07:16:03;;;;;;;2.00;1.40;;;20.90;99.90;;;;;;5051565;28;20531;-71
2021/07/06 07:18:49;;;;;;;5.90;1.70;;;21.00;99.90;;;;;;5050085;28;20450;-72
2021/07/06 07:21:34;;;;;;;2.57;1.50;;;21.10;99.90;;;;;;5049894;28;20418;-71
2021/07/06 07:24:20;;;;;;;3.53;1.30;;;21.00;99.90;;;;;;5051874;28;20389;-72
2021/07/06 07:27:06;;;;;;;2.50;1.83;;;21.00;99.90;;;;;;5050911;28;20477;-72
2021/07/06 07:29:54;;;;;;;9.93;2.27;;;21.10;99.90;;;;;;5045366;28;20470;-71
2021/07/06 07:32:39;;;;;;;5.90;2.10;;;21.10;99.90;;;;;;5050210;28;20464;-72
2021/07/06 07:35:25;;;;;;;4.33;2.23;;;21.10;99.90;;;;;;5051358;28;20937;-72
2021/07/06 07:38:11;;;;;;;3.30;1.67;;;21.20;99.90;;;;;;5047718;28;20864;-72
2021/07/06 07:40:56;;;;;;;2.70;1.90;;;21.20;99.90;;;;;;5046449;28;20543;-72
2021/07/06 07:43:42;;;;;;;3.40;1.60;;;21.20;99.90;;;;;;5049999;28;20451;-72
2021/07/06 07:46:30;;;;;;;2.50;1.40;;;21.20;99.90;;;;;;5049245;28;20922;-72
2021/07/06 07:49:15;;;;;;;2.90;1.23;;;21.10;99.90;;;;;;5045221;28;20494;-72
2021/07/06 07:52:01;;;;;;;2.80;1.60;;;21.10;99.90;;;;;;5047014;28;20454;-72
2021/07/06 07:54:47;;;;;;;3.17;1.50;;;21.20;99.90;;;;;;5045500;28;20446;-73
2021/07/06 07:57:32;;;;;;;4.80;1.63;;;21.20;99.90;;;;;;5050831;28;20420;-72
2021/07/06 08:00:19;;;;;;;3.73;1.43;;;21.30;99.90;;;;;;5051343;22;20508;-72
2021/07/06 08:03:06;;;;;;;2.20;1.40;;;21.20;99.90;;;;;;5019578;28;20414;-72
2021/07/06 08:05:52;;;;;;;6.90;1.53;;;21.30;99.90;;;;;;5028861;28;20457;-72
2021/07/06 08:08:37;;;;;;;3.53;1.90;;;21.40;99.90;;;;;;5023087;28;20534;-72
2021/07/06 08:11:23;;;;;;;6.50;2.90;;;21.50;99.90;;;;;;5024139;28;20508;-72
2021/07/06 08:14:09;;;;;;;2.70;1.50;;;21.50;99.90;;;;;;5026031;28;20845;-72
2021/07/06 08:16:57;;;;;;;5.30;2.00;;;21.50;99.90;;;;;;5026533;28;20435;-72
2021/07/06 08:19:44;;;;;;;7.30;2.17;;;21.50;99.90;;;;;;5029736;28;21035;-72
2021/07/06 08:22:30;;;;;;;2.80;1.80;;;21.50;99.90;;;;;;5030699;28;20430;-72
2021/07/06 08:25:16;;;;;;;4.43;1.77;;;21.40;99.90;;;;;;5029659;28;20434;-72
2021/07/06 08:28:01;;;;;;;4.23;2.00;;;21.40;99.90;;;;;;5029300;28;20455;-72
2021/07/06 08:30:47;;;;;;;4.50;1.67;;;21.30;99.90;;;;;;5014748;28;20564;-72
2021/07/06 08:33:33;;;;;;;2.30;1.63;;;21.20;99.90;;;;;;5030002;28;21047;-72
2021/07/06 08:36:20;;;;;;;4.20;1.97;;;21.10;99.90;;;;;;5029558;28;20396;-72
2021/07/06 08:39:06;;;;;;;4.77;2.00;;;21.00;99.90;;;;;;5021661;28;20450;-72
2021/07/06 08:41:52;;;;;;;3.83;1.83;;;20.90;99.90;;;;;;5023610;28;20427;-72
2021/07/06 08:44:38;;;;;;;4.00;2.67;;;20.90;99.90;;;;;;5026280;28;20502;-73
2021/07/06 08:47:25;;;;;;;4.10;2.20;;;20.80;99.90;;;;;;5021275;28;20434;-73
2021/07/06 08:50:12;;;;;;;6.27;2.97;;;20.60;99.90;;;;;;5026820;28;20473;-72
2021/07/06 08:52:59;;;;;;;7.57;3.13;;;20.40;99.90;;;;;;5029642;28;20459;-73
2021/07/06 08:55:45;;;;;;;8.10;2.50;;;20.30;99.90;;;;;;5026998;28;20449;-73
2021/07/06 08:58:30;;;;;;;4.20;3.07;;;20.10;99.90;;;;;;5030754;28;20400;-73
2021/07/06 09:01:16;;;;;;;9.00;2.70;;;20.00;99.90;;;;;;5030030;28;20526;-73
2021/07/06 09:04:03;;;;;;;8.43;2.93;;;19.90;99.90;;;;;;5024287;28;20459;-72
2021/07/06 09:06:57;;;;;;;3.90;2.83;;;19.70;99.90;;;;;;5024165;28;20427;-73
2021/07/06 09:09:45;;;;;;;4.20;3.33;;;19.60;99.90;;;;;;5034903;28;20499;-73
2021/07/06 09:12:34;;;;;;;5.70;2.97;;;19.50;99.90;;;;;;5027007;28;20459;-71
2021/07/06 09:15:26;;;;;;;10.70;3.47;;;19.50;99.90;;;;;;5010618;28;20508;-73
2021/07/06 09:18:14;;;;;;;6.20;3.13;;;19.60;99.90;;;;;;5011004;28;20995;-72
2021/07/06 09:21:06;;;;;;;8.70;3.20;;;19.60;99.90;;;;;;5013661;28;20436;-72
2021/07/06 09:23:54;;;;;;;5.03;2.83;;;19.60;99.90;;;;;;5029397;28;20481;-72
2021/07/06 09:26:42;;;;;;;12.80;3.27;;;19.60;99.90;;;;;;5034070;28;20428;-72
2021/07/06 09:29:27;;;;;;;6.10;3.53;;;19.60;99.90;;;;;;5034381;28;20967;-72
2021/07/06 09:32:13;;;;;;;4.93;2.63;;;19.60;99.90;;;;;;5033994;28;20395;-72
2021/07/06 09:35:06;;;;;;;5.73;2.63;;;19.50;99.90;;;;;;5033618;28;20602;-72
2021/07/06 09:37:53;;;;;;;4.80;2.70;;;19.60;99.90;;;;;;5028060;28;20977;-72
2021/07/06 09:40:42;;;;;;;5.57;2.70;;;19.60;99.90;;;;;;5034816;28;20422;-72
2021/07/06 09:43:31;;;;;;;4.40;3.00;;;19.70;99.90;;;;;;5032227;28;20539;-72
2021/07/06 09:46:17;;;;;;;3.33;2.47;;;19.80;99.90;;;;;;5024630;28;20443;-72
2021/07/06 09:49:02;;;;;;;3.23;2.50;;;19.70;99.90;;;;;;5033652;28;20826;-73
2021/07/06 09:51:49;;;;;;;6.33;3.40;;;19.70;99.90;;;;;;5028470;28;20459;-72
2021/07/06 09:54:36;;;;;;;5.93;2.70;;;19.80;99.90;;;;;;5032518;28;20474;-72
2021/07/06 09:57:27;;;;;;;8.73;3.40;;;19.90;99.90;;;;;;5032965;28;20942;-72
2021/07/06 10:00:16;;;;;;;5.40;3.07;;;19.90;99.90;;;;;;5025571;28;20607;-72
2021/07/06 10:03:03;;;;;;;5.80;3.00;;;20.10;99.90;;;;;;5032529;28;20811;-72
2021/07/06 10:05:50;;;;;;;4.70;3.20;;;20.10;99.90;;;;;;5024830;28;20529;-72
2021/07/06 10:08:36;;;;;;;4.40;2.57;;;20.00;99.90;;;;;;5013604;28;20417;-72
2021/07/06 10:11:22;;;;;;;4.97;2.60;;;20.00;99.90;;;;;;5033066;28;20937;-72
2021/07/06 10:14:08;;;;;;;4.37;1.77;;;20.00;99.90;;;;;;5023676;28;20899;-72
2021/07/06 10:16:56;;;;;;;4.70;2.20;;;19.90;99.90;;;;;;5030508;28;20905;-72
2021/07/06 10:19:43;;;;;;;4.53;1.67;;;19.90;99.90;;;;;;5028278;28;20562;-73
2021/07/06 10:22:29;;;;;;;2.27;1.80;;;20.00;99.90;;;;;;5033121;28;20422;-72
2021/07/06 10:25:15;;;;;;;2.23;1.43;;;20.10;99.90;;;;;;5028743;28;20426;-72
2021/07/06 10:28:03;;;;;;;2.83;1.53;;;20.20;99.90;;;;;;5032215;28;20471;-72
2021/07/06 10:30:49;;;;;;;2.53;1.20;;;20.20;99.90;;;;;;5033276;28;20926;-72
2021/07/06 10:33:36;;;;;;;3.60;1.70;;;20.00;99.90;;;;;;5026420;28;20434;-72
2021/07/06 10:36:37;;;;;;;4.10;1.70;;;20.00;99.90;;;;;;5032065;28;20469;-72
2021/07/06 10:39:44;;;;;;;4.13;1.43;;;20.00;99.90;;;;;;5031641;28;20471;-72
2021/07/06 10:42:39;;;;;;;4.67;1.20;;;20.00;99.90;;;;;;5032146;28;20440;-72
2021/07/06 10:45:34;;;;;;;1.77;1.10;;;20.10;99.90;;;;;;5031015;28;20494;-72
2021/07/06 10:48:42;;;;;;;2.60;1.53;;;20.30;99.90;;;;;;5030287;28;20782;-73
2021/07/06 10:51:51;;;;;;;2.90;1.30;;;20.40;99.90;;;;;;5029658;28;20455;-72
2021/07/06 10:54:40;;;;;;;2.07;1.00;;;20.50;99.90;;;;;;5023979;28;20491;-72
2021/07/06 10:57:25;;;;;;;1.50;0.90;;;20.50;99.90;;;;;;5022021;28;20432;-72
2021/07/06 11:00:13;;;;;;;1.67;0.80;;;20.30;99.90;;;;;;5031557;28;20484;-73
2021/07/06 11:03:14;;;;;;;1.90;0.93;;;20.40;99.90;;;;;;5031089;28;20427;-73
2021/07/06 11:06:02;;;;;;;1.60;1.00;;;20.50;99.90;;;;;;5025010;28;20930;-72
2021/07/06 11:08:47;;;;;;;2.47;0.90;;;20.40;99.90;;;;;;5031281;28;20471;-72
2021/07/06 11:11:37;;;;;;;11.73;1.27;;;20.30;99.90;;;;;;5030124;28;20547;-72
2021/07/06 11:14:26;;;;;;;1.67;1.00;;;20.40;99.90;;;;;;5027780;28;20428;-72
2021/07/06 11:17:11;;;;;;;1.60;1.00;;;20.30;99.90;;;;;;5032387;28;20499;-72
2021/07/06 11:20:00;;;;;;;2.20;1.30;;;20.30;99.90;;;;;;5031948;28;20493;-72
2021/07/06 11:22:49;;;;;;;2.40;1.23;;;20.40;99.90;;;;;;5032267;28;20915;-73
2021/07/06 11:25:44;;;;;;;1.50;0.90;;;20.30;99.90;;;;;;5030197;28;20598;-73
2021/07/06 11:28:29;;;;;;;2.20;1.30;;;20.30;99.90;;;;;;5023027;28;20461;-73
2021/07/06 11:31:18;;;;;;;2.07;1.20;;;20.20;99.90;;;;;;5026016;28;20435;-73
2021/07/06 11:34:05;;;;;;;2.67;1.37;;;20.20;99.90;;;;;;5023689;28;20427;-72
2021/07/06 11:36:51;;;;;;;2.10;1.30;;;20.20;99.90;;;;;;5024991;28;20906;-72
2021/07/06 11:39:38;;;;;;;3.70;1.10;;;20.20;99.90;;;;;;5030467;28;20564;-72
2021/07/06 11:42:30;;;;;;;2.53;1.23;;;20.10;99.90;;;;;;5028267;28;20421;-72
2021/07/06 11:45:16;;;;;;;2.20;1.30;;;20.00;99.90;;;;;;5027230;28;21058;-72
2021/07/06 11:48:07;;;;;;;7.90;1.80;;;19.90;99.90;;;;;;5028462;28;20536;-72
2021/07/06 11:50:54;;;;;;;2.13;1.30;;;19.80;99.90;;;;;;5025730;28;20423;-72
2021/07/06 11:53:41;;;;;;;6.93;1.67;;;19.80;99.90;;;;;;5022190;28;20430;-72
2021/07/06 11:56:32;;;;;;;2.07;1.30;;;19.80;99.90;;;;;;5021651;28;21118;-72
2021/07/06 11:59:17;;;;;;;3.10;1.70;;;19.90;99.90;;;;;;5026150;28;20479;-73
2021/07/06 12:02:07;;;;;;;6.50;2.30;;;20.00;99.90;;;;;;5026081;28;20947;-72
2021/07/06 12:04:53;;;;;;;2.03;1.50;;;19.80;99.90;;;;;;5027660;28;20968;-73
2021/07/06 12:07:39;;;;;;;3.63;1.93;;;19.80;99.90;;;;;;5023093;28;20446;-72
2021/07/06 12:10:26;;;;;;;3.50;1.93;;;19.80;99.90;;;;;;5022221;28;20519;-73
2021/07/06 12:13:14;;;;;;;4.43;1.90;;;19.60;99.90;;;;;;5030081;28;20537;-73
2021/07/06 12:16:03;;;;;;;4.40;1.90;;;19.60;99.90;;;;;;5025879;28;20476;-73
2021/07/06 12:18:52;;;;;;;3.50;1.90;;;19.60;99.90;;;;;;5025451;28;20622;-73
2021/07/06 12:21:40;;;;;;;2.77;1.70;;;19.60;99.90;;;;;;5028021;28;20455;-73
2021/07/06 12:24:27;;;;;;;3.07;2.40;;;19.60;99.90;;;;;;5027732;28;21087;-73
2021/07/06 12:27:15;;;;;;;4.70;1.90;;;19.60;99.90;;;;;;5023871;28;20964;-72
2021/07/06 12:30:03;;;;;;;4.17;1.97;;;19.50;99.90;;;;;;5025312;28;20574;-73
2021/07/06 12:33:04;;;;;;;4.40;1.77;;;19.40;99.90;;;;;;5030519;28;20402;-73
2021/07/06 12:35:55;;;;;;;4.40;2.00;;;19.40;99.90;;;;;;5020275;28;20595;-73
2021/07/06 12:38:40;;;;;;;2.87;2.03;;;19.30;99.90;;;;;;5024970;28;20421;-73
2021/07/06 12:41:26;;;;;;;4.90;1.67;;;19.20;99.90;;;;;;5025780;28;20787;-73
2021/07/06 12:44:12;;;;;;;2.67;1.77;;;19.10;99.90;;;;;;5017550;28;20565;-73
2021/07/06 12:47:23;;;;;;;2.50;1.87;;;19.20;99.90;;;;;;5030824;28;20406;-73
2021/07/06 12:50:15;;;;;;;4.40;2.00;;;19.20;99.90;;;;;;5025346;28;20470;-73
2021/07/06 12:53:07;;;;;;;4.30;1.93;;;19.30;99.90;;;;;;5027420;28;20770;-73
2021/07/06 12:55:53;;;;;;;2.07;1.47;;;19.30;99.90;;;;;;5023760;28;20459;-73
2021/07/06 12:58:38;;;;;;;3.10;1.60;;;19.40;99.90;;;;;;5029802;28;20406;-73
2021/07/06 13:01:34;;;;;;;2.77;1.50;;;19.40;99.90;;;;;;5031707;28;20496;-73
2021/07/06 13:04:22;;;;;;;2.80;1.27;;;19.40;99.90;;;;;;5025880;28;20421;-73
2021/07/06 13:07:08;;;;;;;1.90;1.20;;;19.40;99.90;;;;;;5027890;28;20539;-73
2021/07/06 13:10:11;;;;;;;3.20;1.50;;;19.40;99.90;;;;;;5044795;28;20506;-73
2021/07/06 13:12:59;;;;;;;3.27;1.50;;;19.40;99.90;;;;;;5026338;28;20487;-73
2021/07/06 13:15:46;;;;;;;5.23;1.30;;;19.50;99.90;;;;;;5026500;28;20805;-73
2021/07/06 13:18:36;;;;;;;1.77;1.23;;;19.60;99.90;;;;;;5025502;28;20439;-73
2021/07/06 13:21:28;;;;;;;3.00;1.50;;;19.60;99.90;;;;;;5031688;28;20467;-73
2021/07/06 13:24:14;;;;;;;2.10;1.40;;;19.70;99.90;;;;;;5032191;28;20600;-73
2021/07/06 13:27:00;;;;;;;2.80;1.47;;;19.50;99.90;;;;;;5030671;28;20428;-73
2021/07/06 13:29:46;;;;;;;3.67;1.70;;;19.50;99.90;;;;;;5016736;28;20458;-73
2021/07/06 13:32:31;;;;;;;4.13;1.53;;;19.40;99.90;;;;;;5032533;28;21035;-73
2021/07/06 13:35:18;;;;;;;2.00;1.40;;;19.40;99.90;;;;;;5023978;28;20426;-73
2021/07/06 13:38:05;;;;;;;2.67;1.40;;;19.40;99.90;;;;;;5032874;28;20415;-73
2021/07/06 13:40:52;;;;;;;3.67;1.50;;;19.40;99.90;;;;;;5031163;28;20542;-73
2021/07/06 13:43:38;;;;;;;8.93;1.70;;;19.40;99.90;;;;;;5028632;28;20820;-72
2021/07/06 13:46:23;;;;;;;2.20;1.47;;;19.30;99.90;;;;;;5029608;28;20433;-73
2021/07/06 13:49:10;;;;;;;2.43;1.60;;;19.30;99.90;;;;;;5029224;28;20471;-72
2021/07/06 13:51:58;;;;;;;2.43;1.43;;;19.20;99.90;;;;;;5028929;28;20438;-72
2021/07/06 13:54:45;;;;;;;1.97;1.50;;;19.30;99.90;;;;;;5023442;28;20839;-72
2021/07/06 13:57:31;;;;;;;3.47;1.50;;;19.40;99.90;;;;;;5031949;28;20576;-72
2021/07/06 14:00:17;;;;;;;2.50;1.80;;;19.30;99.90;;;;;;5053245;22;20466;-74
2021/07/06 14:03:07;;;;;;;4.33;1.50;;;19.20;99.90;;;;;;5025689;28;20464;-73
2021/07/06 14:05:53;;;;;;;2.00;1.70;;;19.20;99.90;;;;;;5025192;28;20448;-74
2021/07/06 14:08:39;;;;;;;2.73;1.60;;;19.20;99.90;;;;;;5027494;28;20901;-73
2021/07/06 14:11:26;;;;;;;2.70;1.80;;;19.20;99.90;;;;;;5029395;28;20463;-72
2021/07/06 14:14:12;;;;;;;5.07;2.23;;;19.20;99.90;;;;;;5025481;28;20486;-73
2021/07/06 14:16:57;;;;;;;4.77;2.50;;;19.10;99.90;;;;;;5028871;28;20454;-73
2021/07/06 14:19:42;;;;;;;2.83;1.67;;;19.00;99.90;;;;;;5027725;28;20519;-73
2021/07/06 14:22:28;;;;;;;2.20;1.60;;;19.10;99.90;;;;;;5030302;28;20951;-73
2021/07/06 14:25:15;;;;;;;2.83;1.97;;;19.20;99.90;;;;;;5028392;28;21078;-73
2021/07/06 14:28:02;;;;;;;3.50;1.77;;;19.20;99.90;;;;;;5032811;28;20568;-73